sensor_id;sensor_type;location;lat;lon;timestamp;P1;durP1;ratioP1;P2;durP2;ratioP2
17310;SDS011;8773;43.300;0.394;2024-02-15T00:02:15;8.37;;;7.67;;
17310;SDS011;8773;43.300;0.394;2024-02-15T00:04:42;8.53;;;7.63;;
17310;SDS011;8773;43.300;0.394;2024-02-15T00:07:09;8.17;;;7.23;;
17310;SDS011;8773;43.300;0.394;2024-02-15T00:09:37;7.83;;;7.00;;
17310;SDS011;8773;43.300;0.394;2024-02-15T00:12:06;8.47;;;7.13;;
17310;SDS011;8773;43.300;0.394;2024-02-15T00:14:33;7.40;;;6.77;;
17310;SDS011;8773;43.300;0.394;2024-02-15T00:17:01;7.77;;;7.07;;
17310;SDS011;8773;43.300;0.394;2024-02-15T00:19:28;7.77;;;7.07;;
17310;SDS011;8773;43.300;0.394;2024-02-15T00:21:56;8.10;;;7.30;;
17310;SDS011;8773;43.300;0.394;2024-02-15T00:24:23;8.50;;;7.07;;
17310;SDS011;8773;43.300;0.394;2024-02-15T00:26:50;8.13;;;7.23;;
17310;SDS011;8773;43.300;0.394;2024-02-15T00:29:19;7.63;;;6.93;;
17310;SDS011;8773;43.300;0.394;2024-02-15T00:31:46;7.60;;;6.90;;
17310;SDS011;8773;43.300;0.394;2024-02-15T00:34:14;7.07;;;6.37;;
17310;SDS011;8773;43.300;0.394;2024-02-15T00:36:43;6.77;;;6.17;;
17310;SDS011;8773;43.300;0.394;2024-02-15T00:39:10;7.40;;;6.67;;
17310;SDS011;8773;43.300;0.394;2024-02-15T00:41:38;7.07;;;6.20;;
17310;SDS011;8773;43.300;0.394;2024-02-15T00:44:05;6.67;;;6.13;;
17310;SDS011;8773;43.300;0.394;2024-02-15T00:46:34;6.97;;;6.37;;
17310;SDS011;8773;43.300;0.394;2024-02-15T00:49:01;7.80;;;6.53;;
17310;SDS011;8773;43.300;0.394;2024-02-15T00:51:29;6.40;;;5.83;;
17310;SDS011;8773;43.300;0.394;2024-02-15T00:53:57;7.00;;;6.20;;
17310;SDS011;8773;43.300;0.394;2024-02-15T00:56:24;7.73;;;7.00;;
17310;SDS011;8773;43.300;0.394;2024-02-15T00:58:51;6.80;;;6.20;;
17310;SDS011;8773;43.300;0.394;2024-02-15T01:01:19;6.53;;;5.93;;
17310;SDS011;8773;43.300;0.394;2024-02-15T01:03:47;6.60;;;6.03;;
17310;SDS011;8773;43.300;0.394;2024-02-15T01:06:15;6.60;;;6.10;;
17310;SDS011;8773;43.300;0.394;2024-02-15T01:08:42;5.53;;;5.03;;
17310;SDS011;8773;43.300;0.394;2024-02-15T01:11:10;5.97;;;5.37;;
17310;SDS011;8773;43.300;0.394;2024-02-15T01:13:37;6.40;;;5.73;;
17310;SDS011;8773;43.300;0.394;2024-02-15T01:16:04;5.67;;;5.13;;
17310;SDS011;8773;43.300;0.394;2024-02-15T01:18:32;5.47;;;5.00;;
17310;SDS011;8773;43.300;0.394;2024-02-15T01:21:01;5.80;;;5.27;;
17310;SDS011;8773;43.300;0.394;2024-02-15T01:23:29;6.33;;;5.20;;
17310;SDS011;8773;43.300;0.394;2024-02-15T01:25:56;5.70;;;5.20;;
17310;SDS011;8773;43.300;0.394;2024-02-15T01:28:23;6.17;;;5.67;;
17310;SDS011;8773;43.300;0.394;2024-02-15T01:30:51;6.27;;;5.27;;
17310;SDS011;8773;43.300;0.394;2024-02-15T01:33:18;5.60;;;5.10;;
17310;SDS011;8773;43.300;0.394;2024-02-15T01:35:46;4.83;;;4.53;;
17310;SDS011;8773;43.300;0.394;2024-02-15T01:38:14;5.00;;;4.60;;
17310;SDS011;8773;43.300;0.394;2024-02-15T01:40:42;5.20;;;4.80;;
17310;SDS011;8773;43.300;0.394;2024-02-15T01:43:09;5.20;;;4.70;;
17310;SDS011;8773;43.300;0.394;2024-02-15T01:45:36;5.40;;;5.00;;
17310;SDS011;8773;43.300;0.394;2024-02-15T01:48:04;5.57;;;5.17;;
17310;SDS011;8773;43.300;0.394;2024-02-15T01:50:33;5.10;;;4.80;;
17310;SDS011;8773;43.300;0.394;2024-02-15T01:53:01;5.13;;;4.73;;
17310;SDS011;8773;43.300;0.394;2024-02-15T01:55:34;5.37;;;4.80;;
17310;SDS011;8773;43.300;0.394;2024-02-15T01:58:02;5.70;;;5.20;;
17310;SDS011;8773;43.300;0.394;2024-02-15T02:00:30;5.80;;;4.77;;
17310;SDS011;8773;43.300;0.394;2024-02-15T02:02:58;4.97;;;4.57;;
17310;SDS011;8773;43.300;0.394;2024-02-15T02:05:26;5.10;;;4.60;;
17310;SDS011;8773;43.300;0.394;2024-02-15T02:07:54;5.27;;;4.77;;
17310;SDS011;8773;43.300;0.394;2024-02-15T02:10:21;4.43;;;4.13;;
17310;SDS011;8773;43.300;0.394;2024-02-15T02:12:50;5.93;;;5.20;;
17310;SDS011;8773;43.300;0.394;2024-02-15T02:15:17;5.30;;;4.57;;
17310;SDS011;8773;43.300;0.394;2024-02-15T02:17:48;5.37;;;4.87;;
17310;SDS011;8773;43.300;0.394;2024-02-15T02:20:16;6.10;;;4.90;;
17310;SDS011;8773;43.300;0.394;2024-02-15T02:22:43;5.17;;;4.87;;
17310;SDS011;8773;43.300;0.394;2024-02-15T02:25:14;5.10;;;4.70;;
17310;SDS011;8773;43.300;0.394;2024-02-15T02:27:43;4.83;;;4.43;;
17310;SDS011;8773;43.300;0.394;2024-02-15T02:30:12;4.90;;;4.37;;
17310;SDS011;8773;43.300;0.394;2024-02-15T02:32:41;4.60;;;4.23;;
17310;SDS011;8773;43.300;0.394;2024-02-15T02:35:08;4.60;;;4.20;;
17310;SDS011;8773;43.300;0.394;2024-02-15T02:37:36;4.80;;;4.40;;
17310;SDS011;8773;43.300;0.394;2024-02-15T02:40:04;4.70;;;4.40;;
17310;SDS011;8773;43.300;0.394;2024-02-15T02:42:33;4.33;;;3.97;;
17310;SDS011;8773;43.300;0.394;2024-02-15T02:45:00;4.60;;;4.10;;
17310;SDS011;8773;43.300;0.394;2024-02-15T02:47:28;4.80;;;4.50;;
17310;SDS011;8773;43.300;0.394;2024-02-15T02:49:55;4.33;;;4.03;;
17310;SDS011;8773;43.300;0.394;2024-02-15T02:52:23;5.17;;;4.03;;
17310;SDS011;8773;43.300;0.394;2024-02-15T02:54:50;4.67;;;4.27;;
17310;SDS011;8773;43.300;0.394;2024-02-15T02:57:17;4.70;;;4.23;;
17310;SDS011;8773;43.300;0.394;2024-02-15T02:59:46;5.67;;;4.77;;
17310;SDS011;8773;43.300;0.394;2024-02-15T03:02:13;4.30;;;3.93;;
17310;SDS011;8773;43.300;0.394;2024-02-15T03:04:40;5.40;;;4.90;;
17310;SDS011;8773;43.300;0.394;2024-02-15T03:07:08;4.63;;;4.23;;
17310;SDS011;8773;43.300;0.394;2024-02-15T03:09:35;4.60;;;4.20;;
17310;SDS011;8773;43.300;0.394;2024-02-15T03:12:03;5.17;;;4.67;;
17310;SDS011;8773;43.300;0.394;2024-02-15T03:14:31;4.23;;;3.93;;
17310;SDS011;8773;43.300;0.394;2024-02-15T03:16:59;4.80;;;4.50;;
17310;SDS011;8773;43.300;0.394;2024-02-15T03:19:27;4.30;;;4.00;;
17310;SDS011;8773;43.300;0.394;2024-02-15T03:21:54;4.50;;;4.10;;
17310;SDS011;8773;43.300;0.394;2024-02-15T03:24:21;4.43;;;4.07;;
17310;SDS011;8773;43.300;0.394;2024-02-15T03:26:49;4.43;;;4.10;;
17310;SDS011;8773;43.300;0.394;2024-02-15T03:29:16;4.73;;;4.10;;
17310;SDS011;8773;43.300;0.394;2024-02-15T03:31:43;4.57;;;4.17;;
17310;SDS011;8773;43.300;0.394;2024-02-15T03:34:12;4.53;;;4.13;;
17310;SDS011;8773;43.300;0.394;2024-02-15T03:36:40;3.83;;;3.63;;
17310;SDS011;8773;43.300;0.394;2024-02-15T03:39:07;4.53;;;4.10;;
17310;SDS011;8773;43.300;0.394;2024-02-15T03:41:34;3.80;;;3.60;;
17310;SDS011;8773;43.300;0.394;2024-02-15T03:44:02;4.70;;;4.07;;
17310;SDS011;8773;43.300;0.394;2024-02-15T03:46:29;4.50;;;4.10;;
17310;SDS011;8773;43.300;0.394;2024-02-15T03:48:56;4.70;;;4.30;;
17310;SDS011;8773;43.300;0.394;2024-02-15T03:51:25;4.37;;;3.90;;
17310;SDS011;8773;43.300;0.394;2024-02-15T03:53:53;4.63;;;4.23;;
17310;SDS011;8773;43.300;0.394;2024-02-15T03:56:20;4.60;;;4.23;;
17310;SDS011;8773;43.300;0.394;2024-02-15T03:58:47;4.63;;;4.17;;
17310;SDS011;8773;43.300;0.394;2024-02-15T04:01:15;5.27;;;4.20;;
17310;SDS011;8773;43.300;0.394;2024-02-15T04:03:42;4.07;;;3.87;;
17310;SDS011;8773;43.300;0.394;2024-02-15T04:06:10;4.50;;;4.10;;
17310;SDS011;8773;43.300;0.394;2024-02-15T04:08:39;4.90;;;3.70;;
17310;SDS011;8773;43.300;0.394;2024-02-15T04:11:06;4.20;;;3.80;;
17310;SDS011;8773;43.300;0.394;2024-02-15T04:13:33;3.93;;;3.63;;
17310;SDS011;8773;43.300;0.394;2024-02-15T04:16:01;3.70;;;3.50;;
17310;SDS011;8773;43.300;0.394;2024-02-15T04:18:28;4.20;;;3.80;;
17310;SDS011;8773;43.300;0.394;2024-02-15T04:20:55;4.23;;;3.73;;
17310;SDS011;8773;43.300;0.394;2024-02-15T04:23:23;3.57;;;3.37;;
17310;SDS011;8773;43.300;0.394;2024-02-15T04:25:52;4.03;;;3.43;;
17310;SDS011;8773;43.300;0.394;2024-02-15T04:28:19;4.30;;;3.63;;
17310;SDS011;8773;43.300;0.394;2024-02-15T04:30:46;3.77;;;3.47;;
17310;SDS011;8773;43.300;0.394;2024-02-15T04:33:14;4.40;;;3.40;;
17310;SDS011;8773;43.300;0.394;2024-02-15T04:35:41;3.37;;;3.20;;
17310;SDS011;8773;43.300;0.394;2024-02-15T04:38:09;3.83;;;3.53;;
17310;SDS011;8773;43.300;0.394;2024-02-15T04:40:36;4.00;;;3.70;;
17310;SDS011;8773;43.300;0.394;2024-02-15T04:43:05;3.67;;;3.40;;
17310;SDS011;8773;43.300;0.394;2024-02-15T04:45:32;3.80;;;3.50;;
17310;SDS011;8773;43.300;0.394;2024-02-15T04:48:00;4.70;;;3.87;;
17310;SDS011;8773;43.300;0.394;2024-02-15T04:50:27;3.83;;;3.53;;
17310;SDS011;8773;43.300;0.394;2024-02-15T04:52:55;4.00;;;3.60;;
17310;SDS011;8773;43.300;0.394;2024-02-15T04:55:22;4.03;;;3.70;;
17310;SDS011;8773;43.300;0.394;2024-02-15T04:57:50;3.57;;;3.27;;
17310;SDS011;8773;43.300;0.394;2024-02-15T05:00:18;4.07;;;3.87;;
17310;SDS011;8773;43.300;0.394;2024-02-15T05:02:46;3.60;;;3.40;;
17310;SDS011;8773;43.300;0.394;2024-02-15T05:05:13;3.27;;;3.07;;
17310;SDS011;8773;43.300;0.394;2024-02-15T05:07:41;3.83;;;3.53;;
17310;SDS011;8773;43.300;0.394;2024-02-15T05:10:08;3.53;;;3.23;;
17310;SDS011;8773;43.300;0.394;2024-02-15T05:12:37;3.53;;;3.33;;
17310;SDS011;8773;43.300;0.394;2024-02-15T05:15:04;3.97;;;3.63;;
17310;SDS011;8773;43.300;0.394;2024-02-15T05:17:34;3.33;;;3.13;;
17310;SDS011;8773;43.300;0.394;2024-02-15T05:20:01;4.33;;;3.90;;
17310;SDS011;8773;43.300;0.394;2024-02-15T05:22:29;3.80;;;3.50;;
17310;SDS011;8773;43.300;0.394;2024-02-15T05:24:56;3.73;;;3.37;;
17310;SDS011;8773;43.300;0.394;2024-02-15T05:27:23;5.33;;;3.93;;
17310;SDS011;8773;43.300;0.394;2024-02-15T05:29:51;4.83;;;3.93;;
17310;SDS011;8773;43.300;0.394;2024-02-15T05:32:18;4.10;;;3.60;;
17310;SDS011;8773;43.300;0.394;2024-02-15T05:34:47;3.70;;;3.40;;
17310;SDS011;8773;43.300;0.394;2024-02-15T05:37:15;4.03;;;3.40;;
17310;SDS011;8773;43.300;0.394;2024-02-15T05:39:42;3.30;;;3.10;;
17310;SDS011;8773;43.300;0.394;2024-02-15T05:42:09;3.47;;;3.27;;
17310;SDS011;8773;43.300;0.394;2024-02-15T05:44:37;4.73;;;2.60;;
17310;SDS011;8773;43.300;0.394;2024-02-15T05:47:04;3.50;;;3.30;;
17310;SDS011;8773;43.300;0.394;2024-02-15T05:49:32;3.00;;;2.80;;
17310;SDS011;8773;43.300;0.394;2024-02-15T05:52:00;3.40;;;3.10;;
17310;SDS011;8773;43.300;0.394;2024-02-15T05:54:28;2.83;;;2.70;;
17310;SDS011;8773;43.300;0.394;2024-02-15T05:56:55;2.87;;;2.77;;
17310;SDS011;8773;43.300;0.394;2024-02-15T05:59:22;3.17;;;2.83;;
17310;SDS011;8773;43.300;0.394;2024-02-15T06:01:50;3.37;;;3.07;;
17310;SDS011;8773;43.300;0.394;2024-02-15T06:04:17;2.70;;;2.60;;
17310;SDS011;8773;43.300;0.394;2024-02-15T06:06:45;3.47;;;3.13;;
17310;SDS011;8773;43.300;0.394;2024-02-15T06:09:14;3.27;;;3.07;;
17310;SDS011;8773;43.300;0.394;2024-02-15T06:11:41;3.53;;;3.10;;
17310;SDS011;8773;43.300;0.394;2024-02-15T06:14:09;3.57;;;2.93;;
17310;SDS011;8773;43.300;0.394;2024-02-15T06:16:41;3.27;;;2.97;;
17310;SDS011;8773;43.300;0.394;2024-02-15T06:19:09;2.33;;;2.13;;
17310;SDS011;8773;43.300;0.394;2024-02-15T06:21:37;2.80;;;2.60;;
17310;SDS011;8773;43.300;0.394;2024-02-15T06:24:04;2.40;;;2.30;;
17310;SDS011;8773;43.300;0.394;2024-02-15T06:26:33;2.40;;;2.30;;
17310;SDS011;8773;43.300;0.394;2024-02-15T06:29:00;2.60;;;2.40;;
17310;SDS011;8773;43.300;0.394;2024-02-15T06:31:28;3.20;;;2.80;;
17310;SDS011;8773;43.300;0.394;2024-02-15T06:33:55;3.63;;;2.50;;
17310;SDS011;8773;43.300;0.394;2024-02-15T06:36:23;2.53;;;2.40;;
17310;SDS011;8773;43.300;0.394;2024-02-15T06:38:50;2.77;;;2.57;;
17310;SDS011;8773;43.300;0.394;2024-02-15T06:41:18;2.53;;;2.33;;
17310;SDS011;8773;43.300;0.394;2024-02-15T06:43:46;2.67;;;2.47;;
17310;SDS011;8773;43.300;0.394;2024-02-15T06:46:14;2.70;;;2.50;;
17310;SDS011;8773;43.300;0.394;2024-02-15T06:48:41;2.60;;;2.07;;
17310;SDS011;8773;43.300;0.394;2024-02-15T06:51:09;2.50;;;2.37;;
17310;SDS011;8773;43.300;0.394;2024-02-15T06:53:39;2.60;;;2.40;;
17310;SDS011;8773;43.300;0.394;2024-02-15T06:56:08;2.77;;;2.57;;
17310;SDS011;8773;43.300;0.394;2024-02-15T06:58:35;2.30;;;2.20;;
17310;SDS011;8773;43.300;0.394;2024-02-15T07:01:04;2.87;;;2.33;;
17310;SDS011;8773;43.300;0.394;2024-02-15T07:03:31;2.97;;;2.77;;
17310;SDS011;8773;43.300;0.394;2024-02-15T07:05:59;3.80;;;3.17;;
17310;SDS011;8773;43.300;0.394;2024-02-15T07:08:27;2.83;;;2.63;;
17310;SDS011;8773;43.300;0.394;2024-02-15T07:10:54;3.03;;;2.83;;
17310;SDS011;8773;43.300;0.394;2024-02-15T07:13:22;2.93;;;2.80;;
17310;SDS011;8773;43.300;0.394;2024-02-15T07:15:49;2.70;;;2.60;;
17310;SDS011;8773;43.300;0.394;2024-02-15T07:18:18;3.63;;;2.47;;
17310;SDS011;8773;43.300;0.394;2024-02-15T07:20:45;3.00;;;2.73;;
17310;SDS011;8773;43.300;0.394;2024-02-15T07:23:13;3.70;;;2.50;;
17310;SDS011;8773;43.300;0.394;2024-02-15T07:25:40;3.27;;;2.97;;
17310;SDS011;8773;43.300;0.394;2024-02-15T07:28:08;2.60;;;2.50;;
17310;SDS011;8773;43.300;0.394;2024-02-15T07:30:35;3.17;;;2.40;;
17310;SDS011;8773;43.300;0.394;2024-02-15T07:33:03;2.70;;;2.50;;
17310;SDS011;8773;43.300;0.394;2024-02-15T07:35:32;2.97;;;2.77;;
17310;SDS011;8773;43.300;0.394;2024-02-15T07:37:59;2.50;;;2.40;;
17310;SDS011;8773;43.300;0.394;2024-02-15T07:40:27;2.57;;;2.40;;
17310;SDS011;8773;43.300;0.394;2024-02-15T07:42:55;3.47;;;2.37;;
17310;SDS011;8773;43.300;0.394;2024-02-15T07:45:23;2.57;;;2.43;;
17310;SDS011;8773;43.300;0.394;2024-02-15T07:47:51;2.90;;;2.70;;
17310;SDS011;8773;43.300;0.394;2024-02-15T07:50:18;2.90;;;2.40;;
17310;SDS011;8773;43.300;0.394;2024-02-15T07:52:47;2.83;;;2.57;;
17310;SDS011;8773;43.300;0.394;2024-02-15T07:55:14;2.60;;;2.40;;
17310;SDS011;8773;43.300;0.394;2024-02-15T07:57:42;2.63;;;2.50;;
17310;SDS011;8773;43.300;0.394;2024-02-15T08:00:09;2.70;;;2.50;;
17310;SDS011;8773;43.300;0.394;2024-02-15T08:02:38;2.80;;;2.50;;
17310;SDS011;8773;43.300;0.394;2024-02-15T08:05:05;2.70;;;2.60;;
17310;SDS011;8773;43.300;0.394;2024-02-15T08:07:33;2.97;;;2.50;;
17310;SDS011;8773;43.300;0.394;2024-02-15T08:10:02;3.10;;;2.90;;
17310;SDS011;8773;43.300;0.394;2024-02-15T08:12:29;3.17;;;2.93;;
17310;SDS011;8773;43.300;0.394;2024-02-15T08:14:57;3.40;;;3.10;;
17310;SDS011;8773;43.300;0.394;2024-02-15T08:17:24;3.87;;;3.57;;
17310;SDS011;8773;43.300;0.394;2024-02-15T08:19:51;3.97;;;3.67;;
17310;SDS011;8773;43.300;0.394;2024-02-15T08:22:19;3.47;;;3.17;;
17310;SDS011;8773;43.300;0.394;2024-02-15T08:24:46;4.40;;;2.80;;
17310;SDS011;8773;43.300;0.394;2024-02-15T08:27:15;3.70;;;3.30;;
17310;SDS011;8773;43.300;0.394;2024-02-15T08:29:42;3.30;;;3.00;;
17310;SDS011;8773;43.300;0.394;2024-02-15T08:32:09;2.97;;;2.80;;
17310;SDS011;8773;43.300;0.394;2024-02-15T08:34:37;3.10;;;2.83;;
17310;SDS011;8773;43.300;0.394;2024-02-15T08:37:04;2.77;;;2.67;;
17310;SDS011;8773;43.300;0.394;2024-02-15T08:39:32;3.67;;;3.37;;
17310;SDS011;8773;43.300;0.394;2024-02-15T08:41:59;3.43;;;2.93;;
17310;SDS011;8773;43.300;0.394;2024-02-15T08:44:28;3.60;;;2.80;;
17310;SDS011;8773;43.300;0.394;2024-02-15T08:46:55;2.43;;;2.23;;
17310;SDS011;8773;43.300;0.394;2024-02-15T08:49:23;2.80;;;2.60;;
17310;SDS011;8773;43.300;0.394;2024-02-15T08:51:50;2.90;;;2.60;;
17310;SDS011;8773;43.300;0.394;2024-02-15T08:54:18;4.60;;;4.30;;
17310;SDS011;8773;43.300;0.394;2024-02-15T08:56:45;4.10;;;2.73;;
17310;SDS011;8773;43.300;0.394;2024-02-15T08:59:12;2.57;;;2.30;;
17310;SDS011;8773;43.300;0.394;2024-02-15T09:01:41;5.43;;;2.57;;
17310;SDS011;8773;43.300;0.394;2024-02-15T09:04:08;2.73;;;2.60;;
17310;SDS011;8773;43.300;0.394;2024-02-15T09:06:36;2.93;;;2.57;;
17310;SDS011;8773;43.300;0.394;2024-02-15T09:09:03;4.33;;;3.10;;
17310;SDS011;8773;43.300;0.394;2024-02-15T09:11:31;3.00;;;2.70;;
17310;SDS011;8773;43.300;0.394;2024-02-15T09:13:58;2.90;;;2.70;;
17310;SDS011;8773;43.300;0.394;2024-02-15T09:16:26;3.20;;;2.90;;
17310;SDS011;8773;43.300;0.394;2024-02-15T09:18:55;9.77;;;9.07;;
17310;SDS011;8773;43.300;0.394;2024-02-15T09:21:23;6.30;;;5.90;;
17310;SDS011;8773;43.300;0.394;2024-02-15T09:23:50;4.23;;;3.90;;
17310;SDS011;8773;43.300;0.394;2024-02-15T09:26:18;6.27;;;5.77;;
17310;SDS011;8773;43.300;0.394;2024-02-15T09:28:45;4.30;;;4.00;;
17310;SDS011;8773;43.300;0.394;2024-02-15T09:31:12;3.73;;;3.50;;
17310;SDS011;8773;43.300;0.394;2024-02-15T09:33:40;4.27;;;3.10;;
17310;SDS011;8773;43.300;0.394;2024-02-15T09:36:09;4.37;;;4.07;;
17310;SDS011;8773;43.300;0.394;2024-02-15T09:38:36;4.30;;;2.90;;
17310;SDS011;8773;43.300;0.394;2024-02-15T09:41:03;4.40;;;2.67;;
17310;SDS011;8773;43.300;0.394;2024-02-15T09:43:34;3.10;;;2.90;;
17310;SDS011;8773;43.300;0.394;2024-02-15T09:46:02;3.47;;;3.20;;
17310;SDS011;8773;43.300;0.394;2024-02-15T09:48:29;5.27;;;3.73;;
17310;SDS011;8773;43.300;0.394;2024-02-15T09:50:59;3.87;;;3.57;;
17310;SDS011;8773;43.300;0.394;2024-02-15T09:53:29;4.00;;;3.70;;
17310;SDS011;8773;43.300;0.394;2024-02-15T09:55:58;4.20;;;3.80;;
17310;SDS011;8773;43.300;0.394;2024-02-15T09:58:27;4.10;;;3.90;;
17310;SDS011;8773;43.300;0.394;2024-02-15T10:00:59;4.27;;;3.87;;
17310;SDS011;8773;43.300;0.394;2024-02-15T10:03:30;3.80;;;3.60;;
17310;SDS011;8773;43.300;0.394;2024-02-15T10:05:58;3.83;;;3.57;;
17310;SDS011;8773;43.300;0.394;2024-02-15T10:08:25;3.93;;;3.40;;
17310;SDS011;8773;43.300;0.394;2024-02-15T10:11:06;3.87;;;3.47;;
17310;SDS011;8773;43.300;0.394;2024-02-15T10:13:34;4.70;;;4.03;;
17310;SDS011;8773;43.300;0.394;2024-02-15T10:16:13;4.43;;;4.10;;
17310;SDS011;8773;43.300;0.394;2024-02-15T10:18:41;4.30;;;3.90;;
17310;SDS011;8773;43.300;0.394;2024-02-15T10:21:09;4.63;;;4.10;;
17310;SDS011;8773;43.300;0.394;2024-02-15T10:23:37;3.87;;;3.50;;
17310;SDS011;8773;43.300;0.394;2024-02-15T10:29:05;3.60;;;3.27;;
17310;SDS011;8773;43.300;0.394;2024-02-15T10:31:34;4.00;;;3.70;;
17310;SDS011;8773;43.300;0.394;2024-02-15T10:34:02;8.73;;;4.20;;
17310;SDS011;8773;43.300;0.394;2024-02-15T10:36:31;4.73;;;4.10;;
17310;SDS011;8773;43.300;0.394;2024-02-15T10:39:10;3.80;;;3.40;;
17310;SDS011;8773;43.300;0.394;2024-02-15T10:41:38;4.97;;;4.47;;
17310;SDS011;8773;43.300;0.394;2024-02-15T10:44:07;4.53;;;4.00;;
17310;SDS011;8773;43.300;0.394;2024-02-15T10:46:35;4.07;;;3.77;;
17310;SDS011;8773;43.300;0.394;2024-02-15T10:49:02;5.00;;;4.13;;
17310;SDS011;8773;43.300;0.394;2024-02-15T10:51:30;4.27;;;3.93;;
17310;SDS011;8773;43.300;0.394;2024-02-15T10:53:58;4.43;;;4.10;;
17310;SDS011;8773;43.300;0.394;2024-02-15T10:56:34;4.63;;;4.20;;
17310;SDS011;8773;43.300;0.394;2024-02-15T10:59:07;4.70;;;4.40;;
17310;SDS011;8773;43.300;0.394;2024-02-15T11:01:43;5.55;;;4.47;;
17310;SDS011;8773;43.300;0.394;2024-02-15T11:04:15;4.55;;;3.90;;
17310;SDS011;8773;43.300;0.394;2024-02-15T11:06:46;3.40;;;3.10;;
17310;SDS011;8773;43.300;0.394;2024-02-15T11:09:16;3.92;;;3.58;;
17310;SDS011;8773;43.300;0.394;2024-02-15T11:11:44;5.22;;;3.60;;
17310;SDS011;8773;43.300;0.394;2024-02-15T11:14:27;5.32;;;3.47;;
17310;SDS011;8773;43.300;0.394;2024-02-15T11:16:56;3.65;;;3.35;;
17310;SDS011;8773;43.300;0.394;2024-02-15T11:19:45;3.72;;;3.40;;
17310;SDS011;8773;43.300;0.394;2024-02-15T11:22:12;4.28;;;3.97;;
17310;SDS011;8773;43.300;0.394;2024-02-15T11:24:47;4.15;;;3.85;;
17310;SDS011;8773;43.300;0.394;2024-02-15T11:27:25;4.25;;;3.85;;
17310;SDS011;8773;43.300;0.394;2024-02-15T11:29:55;3.88;;;3.58;;
17310;SDS011;8773;43.300;0.394;2024-02-15T11:32:36;4.10;;;3.78;;
17310;SDS011;8773;43.300;0.394;2024-02-15T11:35:04;4.43;;;4.13;;
17310;SDS011;8773;43.300;0.394;2024-02-15T11:40:20;4.68;;;4.38;;
17310;SDS011;8773;43.300;0.394;2024-02-15T11:42:48;4.30;;;3.80;;
17310;SDS011;8773;43.300;0.394;2024-02-15T11:45:17;6.32;;;4.07;;
17310;SDS011;8773;43.300;0.394;2024-02-15T11:47:47;6.32;;;5.57;;
17310;SDS011;8773;43.300;0.394;2024-02-15T11:50:16;4.85;;;4.45;;
17310;SDS011;8773;43.300;0.394;2024-02-15T11:52:44;4.63;;;4.32;;
17310;SDS011;8773;43.300;0.394;2024-02-15T11:55:12;6.35;;;5.75;;
17310;SDS011;8773;43.300;0.394;2024-02-15T11:57:39;5.10;;;4.75;;
17310;SDS011;8773;43.300;0.394;2024-02-15T12:00:07;5.63;;;5.07;;
17310;SDS011;8773;43.300;0.394;2024-02-15T12:02:37;4.28;;;3.97;;
17310;SDS011;8773;43.300;0.394;2024-02-15T12:05:05;4.72;;;4.32;;
17310;SDS011;8773;43.300;0.394;2024-02-15T12:07:32;4.43;;;4.13;;
17310;SDS011;8773;43.300;0.394;2024-02-15T12:10:00;4.55;;;4.15;;
17310;SDS011;8773;43.300;0.394;2024-02-15T12:12:31;4.53;;;4.13;;
17310;SDS011;8773;43.300;0.394;2024-02-15T12:14:59;4.82;;;4.40;;
17310;SDS011;8773;43.300;0.394;2024-02-15T12:17:26;5.05;;;4.55;;
17310;SDS011;8773;43.300;0.394;2024-02-15T12:19:56;4.38;;;3.97;;
17310;SDS011;8773;43.300;0.394;2024-02-15T12:22:25;5.03;;;4.35;;
17310;SDS011;8773;43.300;0.394;2024-02-15T12:24:55;5.07;;;4.28;;
17310;SDS011;8773;43.300;0.394;2024-02-15T12:27:24;5.07;;;4.28;;
17310;SDS011;8773;43.300;0.394;2024-02-15T12:29:55;4.30;;;3.92;;
17310;SDS011;8773;43.300;0.394;2024-02-15T12:32:23;6.20;;;4.18;;
17310;SDS011;8773;43.300;0.394;2024-02-15T12:34:51;4.70;;;4.32;;
17310;SDS011;8773;43.300;0.394;2024-02-15T12:37:21;4.45;;;4.05;;
17310;SDS011;8773;43.300;0.394;2024-02-15T12:39:48;5.10;;;4.70;;
17310;SDS011;8773;43.300;0.394;2024-02-15T12:42:15;4.65;;;4.25;;
17310;SDS011;8773;43.300;0.394;2024-02-15T12:44:43;4.80;;;4.35;;
17310;SDS011;8773;43.300;0.394;2024-02-15T12:47:20;5.35;;;4.95;;
17310;SDS011;8773;43.300;0.394;2024-02-15T12:49:48;4.72;;;4.32;;
17310;SDS011;8773;43.300;0.394;2024-02-15T12:52:36;4.85;;;4.40;;
17310;SDS011;8773;43.300;0.394;2024-02-15T12:55:08;6.30;;;4.22;;
17310;SDS011;8773;43.300;0.394;2024-02-15T12:57:38;6.25;;;4.90;;
17310;SDS011;8773;43.300;0.394;2024-02-15T13:00:07;5.15;;;4.68;;
17310;SDS011;8773;43.300;0.394;2024-02-15T13:02:35;4.00;;;3.80;;
17310;SDS011;8773;43.300;0.394;2024-02-15T13:05:03;4.47;;;4.07;;
17310;SDS011;8773;43.300;0.394;2024-02-15T13:07:31;5.50;;;3.58;;
17310;SDS011;8773;43.300;0.394;2024-02-15T13:09:59;3.92;;;3.63;;
17310;SDS011;8773;43.300;0.394;2024-02-15T13:12:27;4.25;;;3.50;;
17310;SDS011;8773;43.300;0.394;2024-02-15T13:14:54;4.07;;;3.47;;
17310;SDS011;8773;43.300;0.394;2024-02-15T13:17:21;3.90;;;3.20;;
17310;SDS011;8773;43.300;0.394;2024-02-15T13:19:49;3.65;;;3.42;;
17310;SDS011;8773;43.300;0.394;2024-02-15T13:22:16;3.88;;;3.67;;
17310;SDS011;8773;43.300;0.394;2024-02-15T13:24:43;3.30;;;3.10;;
17310;SDS011;8773;43.300;0.394;2024-02-15T13:27:12;4.90;;;4.30;;
17310;SDS011;8773;43.300;0.394;2024-02-15T13:29:40;3.63;;;3.33;;
17310;SDS011;8773;43.300;0.394;2024-02-15T13:32:07;4.07;;;3.78;;
17310;SDS011;8773;43.300;0.394;2024-02-15T13:34:34;4.18;;;3.80;;
17310;SDS011;8773;43.300;0.394;2024-02-15T13:37:02;4.43;;;4.03;;
17310;SDS011;8773;43.300;0.394;2024-02-15T13:39:29;4.10;;;3.80;;
17310;SDS011;8773;43.300;0.394;2024-02-15T13:41:57;4.50;;;4.10;;
17310;SDS011;8773;43.300;0.394;2024-02-15T13:44:25;5.95;;;3.75;;
17310;SDS011;8773;43.300;0.394;2024-02-15T13:46:53;3.78;;;3.40;;
17310;SDS011;8773;43.300;0.394;2024-02-15T13:49:20;4.40;;;3.78;;
17310;SDS011;8773;43.300;0.394;2024-02-15T13:51:58;9.10;;;8.50;;
17310;SDS011;8773;43.300;0.394;2024-02-15T13:54:25;4.13;;;3.85;;
17310;SDS011;8773;43.300;0.394;2024-02-15T13:56:52;3.70;;;3.40;;
17310;SDS011;8773;43.300;0.394;2024-02-15T13:59:20;3.35;;;3.15;;
17310;SDS011;8773;43.300;0.394;2024-02-15T14:01:48;4.40;;;2.97;;
17310;SDS011;8773;43.300;0.394;2024-02-15T14:04:16;3.38;;;2.83;;
17310;SDS011;8773;43.300;0.394;2024-02-15T14:06:43;5.22;;;4.93;;
17310;SDS011;8773;43.300;0.394;2024-02-15T14:09:11;3.97;;;3.67;;
17310;SDS011;8773;43.300;0.394;2024-02-15T14:11:38;6.18;;;2.90;;
17310;SDS011;8773;43.300;0.394;2024-02-15T14:14:06;4.05;;;3.85;;
17310;SDS011;8773;43.300;0.394;2024-02-15T14:16:33;5.68;;;5.10;;
17310;SDS011;8773;43.300;0.394;2024-02-15T14:19:02;3.38;;;3.10;;
17310;SDS011;8773;43.300;0.394;2024-02-15T14:21:30;4.50;;;3.55;;
17310;SDS011;8773;43.300;0.394;2024-02-15T14:23:57;4.07;;;3.10;;
17310;SDS011;8773;43.300;0.394;2024-02-15T14:26:30;3.45;;;3.15;;
17310;SDS011;8773;43.300;0.394;2024-02-15T14:28:58;3.75;;;2.95;;
17310;SDS011;8773;43.300;0.394;2024-02-15T14:31:25;3.38;;;3.08;;
17310;SDS011;8773;43.300;0.394;2024-02-15T14:33:52;3.63;;;2.88;;
17310;SDS011;8773;43.300;0.394;2024-02-15T14:36:21;3.20;;;3.00;;
17310;SDS011;8773;43.300;0.394;2024-02-15T14:38:48;4.13;;;2.83;;
17310;SDS011;8773;43.300;0.394;2024-02-15T14:41:16;3.13;;;2.75;;
17310;SDS011;8773;43.300;0.394;2024-02-15T14:43:59;3.13;;;2.90;;
17310;SDS011;8773;43.300;0.394;2024-02-15T14:46:26;3.22;;;3.00;;
17310;SDS011;8773;43.300;0.394;2024-02-15T14:48:53;3.88;;;3.22;;
17310;SDS011;8773;43.300;0.394;2024-02-15T14:51:22;4.35;;;3.78;;
17310;SDS011;8773;43.300;0.394;2024-02-15T14:53:50;4.32;;;3.92;;
17310;SDS011;8773;43.300;0.394;2024-02-15T14:56:17;6.32;;;4.13;;
17310;SDS011;8773;43.300;0.394;2024-02-15T14:58:44;3.65;;;3.35;;
17310;SDS011;8773;43.300;0.394;2024-02-15T15:01:12;4.43;;;3.80;;
17310;SDS011;8773;43.300;0.394;2024-02-15T15:03:39;6.45;;;3.95;;
17310;SDS011;8773;43.300;0.394;2024-02-15T15:06:07;4.72;;;4.43;;
17310;SDS011;8773;43.300;0.394;2024-02-15T15:08:36;4.38;;;3.92;;
17310;SDS011;8773;43.300;0.394;2024-02-15T15:11:03;3.70;;;3.40;;
17310;SDS011;8773;43.300;0.394;2024-02-15T15:13:31;3.80;;;3.45;;